Time;durP1;ratioP1;P1;durP2;ratioP2;P2;SDS_P1;SDS_P2;PMS_P1;PMS_P2;Temp;Humidity;BMP_temperature;BMP_pressure;BME280_temperature;BME280_humidity;BME280_pressure;Samples;Min_cycle;Max_cycle;Signal;HPM_P1;HPM_P2
2023/05/29 00:00:25;;;;;;;8.37;4.23;;;17.50;80.10;;;;;;5013098;28;20475;-75
2023/05/29 00:02:52;;;;;;;9.80;8.17;;;17.50;80.10;;;;;;5012393;28;20896;-75
2023/05/29 00:05:20;;;;;;;12.73;5.20;;;17.50;80.00;;;;;;5012716;28;20469;-76
2023/05/29 00:07:48;;;;;;;10.07;4.50;;;17.50;80.00;;;;;;5012379;28;20567;-75
2023/05/29 00:10:16;;;;;;;7.57;4.57;;;17.50;80.00;;;;;;5012562;28;20478;-75
2023/05/29 00:12:43;;;;;;;7.70;4.97;;;17.50;80.00;;;;;;5012708;28;20783;-76
2023/05/29 00:15:12;;;;;;;7.23;4.33;;;17.40;80.00;;;;;;5012751;28;20773;-76
2023/05/29 00:17:40;;;;;;;7.80;5.07;;;17.40;79.70;;;;;;5012527;28;20808;-75
2023/05/29 00:20:09;;;;;;;8.03;4.77;;;17.40;79.60;;;;;;5012802;28;20469;-76
2023/05/29 00:22:38;;;;;;;6.23;4.23;;;17.40;79.50;;;;;;5007709;28;20799;-76
2023/05/29 00:25:07;;;;;;;6.80;4.03;;;17.40;79.50;;;;;;4993035;28;20478;-76
2023/05/29 00:27:35;;;;;;;7.20;4.70;;;17.30;79.20;;;;;;4992864;28;20480;-76
2023/05/29 00:30:02;;;;;;;7.20;4.70;;;17.30;79.30;;;;;;4993564;28;20501;-76
2023/05/29 00:32:29;;;;;;;7.50;4.27;;;17.30;79.30;;;;;;4993307;28;20466;-76
2023/05/29 00:34:56;;;;;;;7.03;4.10;;;17.30;79.30;;;;;;4992618;28;20552;-75
2023/05/29 00:37:24;;;;;;;5.73;4.50;;;17.20;79.30;;;;;;5013245;28;20845;-75
2023/05/29 00:39:52;;;;;;;6.07;4.50;;;17.20;79.30;;;;;;4995809;28;20792;-75
2023/05/29 00:42:19;;;;;;;5.93;4.63;;;17.20;79.40;;;;;;4989894;28;20470;-74
2023/05/29 00:44:49;;;;;;;4.37;3.53;;;17.20;79.20;;;;;;5001434;28;20452;-75
2023/05/29 00:47:16;;;;;;;10.20;6.00;;;17.10;79.20;;;;;;5027564;28;20483;-75
2023/05/29 00:49:46;;;;;;;9.27;5.63;;;17.10;79.30;;;;;;5034264;28;20506;-75
2023/05/29 00:52:14;;;;;;;9.80;6.67;;;17.10;79.40;;;;;;5032389;28;20472;-74
2023/05/29 00:54:45;;;;;;;8.00;5.50;;;17.10;79.60;;;;;;5031672;28;20464;-75
2023/05/29 00:57:18;;;;;;;7.53;5.43;;;17.10;79.60;;;;;;5032093;28;20538;-74
2023/05/29 00:59:46;;;;;;;6.20;5.70;;;17.10;79.60;;;;;;5013341;28;20473;-74
2023/05/29 01:02:15;;;;;;;7.40;5.83;;;17.10;79.60;;;;;;5012062;28;20477;-74
2023/05/29 01:04:45;;;;;;;6.83;5.23;;;17.00;79.90;;;;;;5011836;28;20467;-74
2023/05/29 01:07:12;;;;;;;10.53;6.03;;;17.00;80.20;;;;;;5012061;28;20461;-74
2023/05/29 01:09:40;;;;;;;10.33;7.17;;;16.90;80.40;;;;;;5012059;28;20809;-75
2023/05/29 01:12:23;;;;;;;10.20;6.23;;;16.90;80.80;;;;;;5012321;28;20461;-75
2023/05/29 01:15:04;;;;;;;10.77;5.97;;;16.90;80.70;;;;;;5012028;28;20476;-74
2023/05/29 01:17:43;;;;;;;8.23;6.00;;;16.90;80.90;;;;;;5013090;28;20479;-74
2023/05/29 01:20:24;;;;;;;8.70;6.30;;;16.90;81.40;;;;;;5012326;28;20572;-75
2023/05/29 01:23:33;;;;;;;9.53;5.30;;;16.80;81.40;;;;;;5008675;28;20846;-75
2023/05/29 01:26:22;;;;;;;8.50;5.87;;;16.80;81.80;;;;;;4995763;28;20528;-75
2023/05/29 01:29:27;;;;;;;;;;;;;;;;;;;;;
2023/05/29 01:34:58;;;;;;;6.07;5.47;;;16.60;82.70;;;;;;4996257;28;20481;-75
2023/05/29 01:37:25;;;;;;;8.73;6.20;;;16.70;82.80;;;;;;4995777;28;20480;-75
2023/05/29 01:40:04;;;;;;;7.57;5.63;;;16.60;83.50;;;;;;4995918;28;20466;-75
2023/05/29 01:42:31;;;;;;;9.83;6.87;;;16.60;83.70;;;;;;4994922;28;20469;-75
2023/05/29 01:45:00;;;;;;;8.37;5.87;;;16.60;84.30;;;;;;5004807;28;20962;-75
2023/05/29 01:47:27;;;;;;;8.13;5.53;;;16.40;84.90;;;;;;5034934;28;20460;-75
2023/05/29 01:49:56;;;;;;;8.17;7.37;;;16.40;85.40;;;;;;5035198;28;20494;-75
2023/05/29 01:52:25;;;;;;;7.93;5.97;;;16.30;85.70;;;;;;5034394;28;20472;-75
2023/05/29 01:54:52;;;;;;;8.00;4.87;;;16.30;86.10;;;;;;5035016;28;20472;-75
2023/05/29 01:57:39;;;;;;;8.93;5.13;;;16.20;86.20;;;;;;5034335;28;20472;-75
2023/05/29 02:00:10;;;;;;;10.90;6.87;;;16.20;86.50;;;;;;4995184;28;20480;-74
2023/05/29 02:02:38;;;;;;;10.63;7.10;;;16.10;86.90;;;;;;4994927;28;20454;-75
2023/05/29 02:05:06;;;;;;;7.63;6.60;;;16.10;87.10;;;;;;4996111;28;20474;-74
2023/05/29 02:07:41;;;;;;;10.07;6.30;;;16.10;87.20;;;;;;4985633;28;20485;-75
2023/05/29 02:10:09;;;;;;;11.43;6.40;;;16.10;87.20;;;;;;4994958;28;20544;-75
2023/05/29 02:12:36;;;;;;;12.13;6.80;;;16.10;87.70;;;;;;4995868;28;20469;-75
2023/05/29 02:15:02;;;;;;;6.73;5.23;;;16.00;88.20;;;;;;5001501;28;20936;-75
2023/05/29 02:17:31;;;;;;;8.40;6.03;;;15.90;88.30;;;;;;4997581;28;20470;-75
2023/05/29 02:19:58;;;;;;;6.23;4.40;;;15.90;88.40;;;;;;4995956;28;20508;-74
2023/05/29 02:22:25;;;;;;;11.87;7.50;;;15.90;88.50;;;;;;4994757;28;21011;-75
2023/05/29 02:24:52;;;;;;;6.67;5.00;;;15.90;88.70;;;;;;4995109;28;20485;-74
2023/05/29 02:27:19;;;;;;;6.70;5.07;;;15.90;88.90;;;;;;4995330;28;20544;-74
2023/05/29 02:32:31;;;;;;;9.43;5.70;;;15.90;89.10;;;;;;4996219;28;20469;-75
2023/05/29 02:34:58;;;;;;;7.00;4.87;;;15.80;89.20;;;;;;4998147;28;20477;-75
2023/05/29 02:37:25;;;;;;;7.03;5.23;;;15.80;89.40;;;;;;5000026;28;20494;-74
2023/05/29 02:39:52;;;;;;;9.23;6.07;;;15.80;89.60;;;;;;5007038;28;20971;-74
2023/05/29 02:42:20;;;;;;;11.63;6.10;;;15.80;89.70;;;;;;5005798;28;20530;-74
2023/05/29 02:44:47;;;;;;;6.83;5.40;;;15.70;90.00;;;;;;5010225;28;20448;-75
2023/05/29 02:47:14;;;;;;;7.87;5.93;;;15.70;90.10;;;;;;5039088;28;20487;-74
2023/05/29 02:49:42;;;;;;;6.87;6.17;;;15.70;90.20;;;;;;5033767;28;20488;-74
2023/05/29 02:52:09;;;;;;;7.47;5.97;;;15.70;90.30;;;;;;5034056;28;20535;-74
2023/05/29 02:54:36;;;;;;;8.17;6.87;;;15.70;90.30;;;;;;5033144;28;20471;-74
2023/05/29 02:57:04;;;;;;;8.20;6.67;;;15.60;90.30;;;;;;5034188;28;20885;-74
2023/05/29 02:59:31;;;;;;;11.40;6.97;;;15.60;90.30;;;;;;5016636;28;20465;-74
2023/05/29 03:01:58;;;;;;;7.07;5.10;;;15.60;90.50;;;;;;5014416;28;20477;-75
2023/05/29 03:04:25;;;;;;;7.40;4.83;;;15.60;90.50;;;;;;5014300;28;21041;-75
2023/05/29 03:06:54;;;;;;;6.80;5.17;;;15.50;90.80;;;;;;5014129;28;20548;-75
2023/05/29 03:09:20;;;;;;;9.40;6.23;;;15.50;90.90;;;;;;5014038;28;20485;-75
2023/05/29 03:11:49;;;;;;;9.40;6.03;;;15.50;91.30;;;;;;5009925;28;20504;-75
2023/05/29 03:14:16;;;;;;;9.27;6.10;;;15.40;91.10;;;;;;4994801;28;20552;-75
2023/05/29 03:16:44;;;;;;;8.30;7.00;;;15.40;91.20;;;;;;5005301;28;20473;-75
2023/05/29 03:19:11;;;;;;;7.90;5.97;;;15.40;91.30;;;;;;5015225;28;20465;-75
2023/05/29 03:21:38;;;;;;;7.17;4.83;;;15.30;91.40;;;;;;5015106;28;20527;-75
2023/05/29 03:24:07;;;;;;;5.90;5.30;;;15.30;91.50;;;;;;4999148;28;20474;-75
2023/05/29 03:26:36;;;;;;;5.70;5.00;;;15.20;91.70;;;;;;4997140;28;20560;-75
2023/05/29 03:29:03;;;;;;;10.40;6.00;;;15.20;91.70;;;;;;4995917;28;20466;-74
2023/05/29 03:31:31;;;;;;;6.83;4.80;;;15.20;91.80;;;;;;4994949;28;20470;-75
2023/05/29 03:33:59;;;;;;;7.40;5.27;;;15.20;92.20;;;;;;4995207;28;20466;-75
2023/05/29 03:36:27;;;;;;;5.97;4.87;;;15.10;91.80;;;;;;4994817;28;20505;-75
2023/05/29 03:38:54;;;;;;;6.43;5.80;;;15.10;92.00;;;;;;4994896;28;20509;-75
2023/05/29 03:41:33;;;;;;;6.10;4.70;;;15.00;92.10;;;;;;4996084;28;20469;-76
2023/05/29 03:44:00;;;;;;;6.60;5.90;;;15.00;92.10;;;;;;4969028;28;20486;-75
2023/05/29 03:46:28;;;;;;;8.57;5.93;;;15.00;92.30;;;;;;5029449;28;20468;-75
2023/05/29 03:48:55;;;;;;;9.83;6.93;;;15.00;92.30;;;;;;5034240;28;20472;-76
2023/05/29 03:51:22;;;;;;;7.27;5.83;;;15.00;92.50;;;;;;5033897;28;20476;-75
2023/05/29 03:53:49;;;;;;;9.67;8.00;;;15.00;92.60;;;;;;5033644;28;20468;-75
2023/05/29 03:56:16;;;;;;;10.07;7.57;;;15.00;92.70;;;;;;5018334;28;20480;-75
2023/05/29 03:58:45;;;;;;;14.93;8.93;;;15.00;92.70;;;;;;5003021;28;20466;-76
2023/05/29 04:01:11;;;;;;;7.50;5.60;;;15.00;92.80;;;;;;4993942;28;20466;-75
2023/05/29 04:03:39;;;;;;;7.57;6.17;;;15.00;92.80;;;;;;4994232;28;20572;-75
2023/05/29 04:06:06;;;;;;;9.47;6.60;;;15.00;92.80;;;;;;4995378;28;20470;-75
2023/05/29 04:08:33;;;;;;;7.13;4.97;;;15.00;92.90;;;;;;4994607;28;20484;-75
2023/05/29 04:11:01;;;;;;;9.90;5.70;;;15.00;92.90;;;;;;4985884;28;20469;-75
2023/05/29 04:13:28;;;;;;;7.23;5.73;;;15.10;92.80;;;;;;4993975;28;20469;-75
2023/05/29 04:15:58;;;;;;;10.57;6.90;;;15.10;92.90;;;;;;4992600;28;20528;-75
2023/05/29 04:18:26;;;;;;;12.47;5.17;;;15.10;92.90;;;;;;4985482;28;20967;-75
2023/05/29 04:20:53;;;;;;;6.97;4.97;;;15.20;93.10;;;;;;4993046;28;20566;-75
2023/05/29 04:23:20;;;;;;;6.60;5.30;;;15.20;93.00;;;;;;4993589;28;20524;-75
2023/05/29 04:25:50;;;;;;;6.27;4.93;;;15.20;93.00;;;;;;4993135;28;20474;-75
2023/05/29 04:28:17;;;;;;;5.70;4.03;;;15.20;93.00;;;;;;4993902;28;20473;-75
2023/05/29 04:30:44;;;;;;;6.97;4.93;;;15.30;93.00;;;;;;4994548;28;20477;-75
2023/05/29 04:33:15;;;;;;;6.73;4.87;;;15.30;92.90;;;;;;4994313;28;20804;-75
2023/05/29 04:35:43;;;;;;;7.13;5.23;;;15.40;92.90;;;;;;4995936;28;20497;-76
2023/05/29 04:38:10;;;;;;;8.67;5.93;;;15.50;92.90;;;;;;5004597;28;20460;-75
2023/05/29 04:40:37;;;;;;;10.07;7.47;;;15.50;92.90;;;;;;5003723;28;20789;-75
2023/05/29 04:43:10;;;;;;;10.70;5.23;;;15.50;92.80;;;;;;4997235;28;20502;-75
2023/05/29 04:45:39;;;;;;;7.70;6.30;;;15.60;92.80;;;;;;4992965;28;21046;-75
2023/05/29 04:48:08;;;;;;;8.57;5.77;;;15.60;92.80;;;;;;4995314;28;20520;-75
2023/05/29 04:50:38;;;;;;;7.47;5.57;;;15.70;92.70;;;;;;4995359;28;20489;-75
2023/05/29 04:53:05;;;;;;;9.13;6.80;;;15.80;92.80;;;;;;4993833;28;20489;-76
2023/05/29 04:55:32;;;;;;;7.07;5.60;;;15.80;92.80;;;;;;4995654;28;20466;-74
2023/05/29 04:58:00;;;;;;;7.90;5.43;;;15.90;92.80;;;;;;4998010;28;20466;-75
2023/05/29 05:00:27;;;;;;;9.03;5.97;;;15.90;92.60;;;;;;4999454;28;20481;-76
2023/05/29 05:02:54;;;;;;;6.97;5.20;;;16.00;92.60;;;;;;4998561;28;20498;-76
2023/05/29 05:05:21;;;;;;;8.23;6.53;;;16.00;92.70;;;;;;4999177;28;20470;-76
2023/05/29 05:07:50;;;;;;;7.10;4.00;;;16.00;92.60;;;;;;4998316;28;20470;-76
2023/05/29 05:10:18;;;;;;;8.67;6.43;;;16.10;92.50;;;;;;4988849;28;20493;-76
2023/05/29 05:12:45;;;;;;;8.20;6.23;;;16.10;92.40;;;;;;4998257;28;20466;-76
2023/05/29 05:15:12;;;;;;;6.90;5.97;;;16.20;92.30;;;;;;4993748;28;20474;-76
2023/05/29 05:17:42;;;;;;;5.80;5.20;;;16.30;92.30;;;;;;4996503;28;20958;-76
2023/05/29 05:20:18;;;;;;;7.67;4.57;;;16.30;92.30;;;;;;4995877;28;20476;-76
2023/05/29 05:22:45;;;;;;;4.33;3.93;;;16.30;92.20;;;;;;4996502;28;20457;-75
2023/05/29 05:25:14;;;;;;;8.53;5.23;;;16.40;92.20;;;;;;4995827;28;20856;-77
2023/05/29 05:27:41;;;;;;;4.33;3.50;;;16.50;92.10;;;;;;4996665;28;20548;-76
2023/05/29 05:30:09;;;;;;;5.83;4.77;;;16.50;91.90;;;;;;4994722;28;20473;-76
2023/05/29 05:32:36;;;;;;;5.47;4.93;;;16.60;91.70;;;;;;4996486;28;20520;-76
2023/05/29 05:35:04;;;;;;;4.67;4.17;;;16.70;91.50;;;;;;4995504;28;20473;-75
2023/05/29 05:37:31;;;;;;;5.30;4.07;;;16.70;91.40;;;;;;4996357;28;20470;-74
2023/05/29 05:40:00;;;;;;;9.10;5.23;;;16.70;91.30;;;;;;4996329;28;20908;-75
2023/05/29 05:42:31;;;;;;;5.93;4.17;;;16.80;91.30;;;;;;4997712;28;20449;-75
2023/05/29 05:44:58;;;;;;;5.03;4.30;;;16.90;91.30;;;;;;4997340;28;20552;-75
2023/05/29 05:47:27;;;;;;;4.53;4.13;;;17.00;91.10;;;;;;4996226;28;20486;-75
2023/05/29 05:49:54;;;;;;;7.30;4.17;;;17.10;90.80;;;;;;4986741;28;20489;-75
2023/05/29 05:52:22;;;;;;;6.23;4.17;;;17.10;90.60;;;;;;4994682;28;20474;-76
2023/05/29 05:54:49;;;;;;;6.33;4.70;;;17.20;90.60;;;;;;4995702;28;20545;-76
2023/05/29 05:57:16;;;;;;;5.03;4.30;;;17.20;90.60;;;;;;4995389;28;20473;-76
2023/05/29 05:59:44;;;;;;;4.23;3.70;;;17.30;90.50;;;;;;4995552;28;20502;-76
2023/05/29 06:02:13;;;;;;;3.93;3.40;;;17.30;90.50;;;;;;4993477;28;20553;-76
2023/05/29 06:04:41;;;;;;;5.83;4.37;;;17.40;90.50;;;;;;4995603;28;20473;-76
2023/05/29 06:07:08;;;;;;;3.77;3.43;;;17.50;90.60;;;;;;4994790;28;20474;-76
2023/05/29 06:09:41;;;;;;;4.17;3.50;;;17.60;90.50;;;;;;4995042;28;20500;-75
2023/05/29 06:12:10;;;;;;;3.37;2.70;;;17.80;90.30;;;;;;4994367;28;20454;-75
2023/05/29 06:14:36;;;;;;;4.20;3.80;;;17.90;89.90;;;;;;4995373;28;20468;-75
2023/05/29 06:17:05;;;;;;;3.60;3.30;;;18.00;87.70;;;;;;4995037;28;20881;-74
2023/05/29 06:19:32;;;;;;;6.90;3.33;;;18.20;87.50;;;;;;4995001;28;20466;-75
2023/05/29 06:22:00;;;;;;;4.47;3.00;;;18.30;86.20;;;;;;4994718;28;20474;-75
2023/05/29 06:24:27;;;;;;;3.63;2.93;;;18.50;86.00;;;;;;4994646;28;20803;-75
2023/05/29 06:26:54;;;;;;;5.50;3.60;;;18.60;84.90;;;;;;4995308;28;20506;-75
2023/05/29 06:29:24;;;;;;;3.70;2.80;;;18.70;84.80;;;;;;4994284;28;20474;-75
2023/05/29 06:31:52;;;;;;;3.63;3.30;;;18.80;84.40;;;;;;4994699;28;20755;-74
2023/05/29 06:34:21;;;;;;;4.47;2.80;;;19.00;84.30;;;;;;4994759;28;20473;-75
2023/05/29 06:36:48;;;;;;;3.10;2.80;;;19.10;83.70;;;;;;4995030;28;20847;-75
2023/05/29 06:39:15;;;;;;;5.07;3.40;;;19.20;83.20;;;;;;4984775;28;20477;-75
2023/05/29 06:41:42;;;;;;;3.20;2.80;;;19.40;82.80;;;;;;4994415;28;20500;-75
2023/05/29 06:44:09;;;;;;;5.57;3.93;;;19.50;79.60;;;;;;4994584;28;20481;-76
2023/05/29 06:46:36;;;;;;;8.83;3.80;;;19.60;79.60;;;;;;4993610;28;20532;-76
2023/05/29 06:49:06;;;;;;;3.30;3.00;;;19.80;78.40;;;;;;4994572;28;20969;-75
2023/05/29 06:51:35;;;;;;;3.87;3.47;;;19.90;78.00;;;;;;4993125;28;20847;-75
2023/05/29 06:54:02;;;;;;;5.90;3.90;;;20.10;78.40;;;;;;4994172;28;20470;-75
2023/05/29 06:56:30;;;;;;;3.80;3.00;;;20.30;78.00;;;;;;4993777;28;20478;-76
2023/05/29 06:58:57;;;;;;;3.23;2.93;;;20.40;77.80;;;;;;4994059;28;20813;-75
2023/05/29 07:01:24;;;;;;;4.00;3.60;;;20.50;77.20;;;;;;4993513;28;20979;-75
2023/05/29 07:03:53;;;;;;;4.60;2.73;;;20.60;76.10;;;;;;4994002;28;20509;-75
2023/05/29 07:06:20;;;;;;;4.23;3.60;;;20.70;75.30;;;;;;4993204;28;20502;-74
2023/05/29 07:08:50;;;;;;;2.70;2.50;;;20.90;75.20;;;;;;4993698;28;20964;-74
2023/05/29 07:11:19;;;;;;;3.53;3.03;;;20.90;74.80;;;;;;4993069;28;20477;-75
2023/05/29 07:13:46;;;;;;;3.27;2.97;;;21.10;74.50;;;;;;4993857;28;20481;-75
2023/05/29 07:16:13;;;;;;;5.00;3.70;;;21.10;74.20;;;;;;4993375;28;20984;-75
2023/05/29 07:18:40;;;;;;;3.90;3.40;;;21.10;73.80;;;;;;4992342;28;20465;-75
2023/05/29 07:21:07;;;;;;;3.10;2.80;;;21.20;73.60;;;;;;4993747;28;20466;-75
2023/05/29 07:23:34;;;;;;;2.70;2.50;;;21.20;72.70;;;;;;4992837;28;20474;-76
2023/05/29 07:26:04;;;;;;;2.47;2.27;;;21.40;72.70;;;;;;4993395;28;20469;-76
2023/05/29 07:28:38;;;;;;;3.83;3.47;;;21.40;70.80;;;;;;4992568;28;20492;-74
2023/05/29 07:31:05;;;;;;;4.70;4.30;;;21.50;71.30;;;;;;4982340;28;20476;-74
2023/05/29 07:33:32;;;;;;;4.50;3.63;;;21.70;72.60;;;;;;4992528;28;20956;-76
2023/05/29 07:36:00;;;;;;;4.27;3.77;;;21.90;72.10;;;;;;4993213;28;20501;-75
2023/05/29 07:38:26;;;;;;;3.83;3.17;;;22.10;71.20;;;;;;4984654;28;20478;-76
2023/05/29 07:40:53;;;;;;;2.80;2.13;;;22.30;70.60;;;;;;4992848;28;20895;-76
2023/05/29 07:43:22;;;;;;;3.53;3.20;;;22.30;68.80;;;;;;4994757;28;20473;-76
2023/05/29 07:45:49;;;;;;;3.27;2.97;;;22.40;68.30;;;;;;4993586;28;20478;-74
2023/05/29 07:48:21;;;;;;;2.93;2.73;;;22.40;68.00;;;;;;4993628;28;20489;-74
2023/05/29 07:50:51;;;;;;;3.03;2.70;;;22.40;67.80;;;;;;4992994;28;20481;-75
2023/05/29 07:53:19;;;;;;;4.00;3.37;;;22.50;68.20;;;;;;4993159;28;20483;-75
2023/05/29 07:55:53;;;;;;;4.97;4.00;;;22.50;68.40;;;;;;4993151;28;20528;-74
2023/05/29 07:58:21;;;;;;;3.13;2.77;;;22.70;67.90;;;;;;4993391;28;20922;-75
2023/05/29 08:00:59;;;;;;;6.07;3.17;;;22.70;66.90;;;;;;4993368;28;21020;-75
2023/05/29 08:03:26;;;;;;;2.50;2.30;;;22.70;66.10;;;;;;4993564;28;20473;-75
2023/05/29 08:05:53;;;;;;;4.27;2.67;;;22.60;64.90;;;;;;4992478;28;20486;-75
2023/05/29 08:08:21;;;;;;;2.27;2.07;;;22.60;64.60;;;;;;4993555;28;20481;-75
2023/05/29 08:10:48;;;;;;;6.00;3.47;;;22.60;64.70;;;;;;4992366;28;20470;-76
2023/05/29 08:13:15;;;;;;;4.77;3.30;;;22.50;65.00;;;;;;4993432;28;20484;-75
2023/05/29 08:15:43;;;;;;;2.63;2.40;;;22.50;65.60;;;;;;4992780;28;20547;-74
2023/05/29 08:18:10;;;;;;;4.40;2.73;;;22.60;65.80;;;;;;4993622;28;20458;-76
2023/05/29 08:20:37;;;;;;;4.23;3.83;;;22.60;65.80;;;;;;4992856;28;20971;-75
2023/05/29 08:23:04;;;;;;;4.00;3.70;;;22.60;65.60;;;;;;4993692;28;20470;-74
2023/05/29 08:25:31;;;;;;;2.67;2.40;;;22.70;65.80;;;;;;4993351;28;20577;-76
2023/05/29 08:27:58;;;;;;;4.50;3.47;;;22.70;64.80;;;;;;4992334;28;20463;-75
2023/05/29 08:30:31;;;;;;;3.57;3.27;;;22.70;63.80;;;;;;4996974;28;20524;-76
2023/05/29 08:33:00;;;;;;;3.30;2.63;;;22.80;63.10;;;;;;4999390;28;20505;-76
2023/05/29 08:35:27;;;;;;;3.03;2.50;;;22.80;63.80;;;;;;4999886;28;20569;-75
2023/05/29 08:37:54;;;;;;;2.80;2.60;;;22.80;61.80;;;;;;4999401;28;20502;-76
2023/05/29 08:40:21;;;;;;;6.37;3.10;;;22.90;61.60;;;;;;4999948;28;20469;-76
2023/05/29 08:43:02;;;;;;;2.77;2.57;;;22.90;61.30;;;;;;5007673;28;20469;-76
2023/05/29 08:45:43;;;;;;;3.20;2.60;;;23.00;61.40;;;;;;5006415;28;20508;-74
2023/05/29 08:48:13;;;;;;;3.10;2.80;;;23.00;61.60;;;;;;5010960;28;20456;-75
2023/05/29 08:50:45;;;;;;;3.50;2.97;;;23.00;61.40;;;;;;5012215;28;20533;-75
2023/05/29 08:53:15;;;;;;;3.47;2.93;;;23.00;61.20;;;;;;4999841;28;20792;-75
2023/05/29 08:55:42;;;;;;;3.93;3.53;;;23.10;61.80;;;;;;5003471;28;20520;-74
2023/05/29 08:58:12;;;;;;;4.53;3.17;;;23.10;62.10;;;;;;5000311;28;20971;-76
2023/05/29 09:00:40;;;;;;;4.03;3.63;;;23.10;62.20;;;;;;5000692;28;20577;-75
2023/05/29 09:03:08;;;;;;;4.53;4.10;;;23.10;62.80;;;;;;5000181;28;20474;-75
2023/05/29 09:05:40;;;;;;;4.17;3.00;;;23.00;62.90;;;;;;5000328;28;20549;-75
2023/05/29 09:08:26;;;;;;;3.63;3.27;;;23.10;62.40;;;;;;4999599;28;20539;-74
2023/05/29 09:10:53;;;;;;;9.53;7.90;;;23.10;62.90;;;;;;4981641;28;20577;-74
2023/05/29 09:13:20;;;;;;;5.47;3.90;;;23.10;63.30;;;;;;4998640;28;20465;-74
2023/05/29 09:15:48;;;;;;;3.70;2.87;;;23.10;63.50;;;;;;4998350;28;20512;-75
2023/05/29 09:18:18;;;;;;;4.00;3.30;;;23.20;63.40;;;;;;4997404;28;20480;-75
2023/05/29 09:20:46;;;;;;;4.60;4.20;;;23.10;62.60;;;;;;4999339;28;20480;-75
2023/05/29 09:23:16;;;;;;;4.00;3.33;;;23.10;63.10;;;;;;4997855;28;20469;-76
2023/05/29 09:25:52;;;;;;;3.30;2.90;;;23.10;62.20;;;;;;4982990;28;20817;-76
2023/05/29 09:28:23;;;;;;;4.03;3.40;;;23.00;62.10;;;;;;4999114;28;20549;-76
2023/05/29 09:30:51;;;;;;;5.97;4.10;;;23.00;62.60;;;;;;4998351;28;20472;-76
2023/05/29 09:33:18;;;;;;;6.27;5.30;;;23.00;62.80;;;;;;4997876;28;20461;-76
2023/05/29 09:35:48;;;;;;;6.57;5.47;;;23.00;63.20;;;;;;4988594;28;20992;-75
2023/05/29 09:38:16;;;;;;;5.07;4.27;;;23.00;63.20;;;;;;4997424;28;20538;-76
2023/05/29 09:40:45;;;;;;;3.03;2.70;;;23.10;62.90;;;;;;4998137;28;20473;-75
2023/05/29 09:43:13;;;;;;;4.00;3.37;;;23.10;62.00;;;;;;4994988;28;20469;-74
2023/05/29 09:45:41;;;;;;;6.70;4.30;;;23.10;62.00;;;;;;4994182;28;20484;-76
2023/05/29 09:48:13;;;;;;;4.80;4.40;;;23.10;62.30;;;;;;4994537;28;21043;-76
2023/05/29 09:50:42;;;;;;;5.70;4.17;;;23.10;62.00;;;;;;4995510;28;20633;-76
2023/05/29 09:53:21;;;;;;;5.40;4.30;;;23.10;61.50;;;;;;4994909;28;20979;-76
2023/05/29 09:55:50;;;;;;;5.57;4.83;;;23.10;61.70;;;;;;4995855;28;20482;-76
2023/05/29 09:58:19;;;;;;;6.90;4.43;;;23.00;61.20;;;;;;4993278;28;20461;-76
2023/05/29 10:00:49;;;;;;;4.50;4.13;;;22.90;62.20;;;;;;4994259;28;20556;-76
2023/05/29 10:03:21;;;;;;;5.70;3.23;;;22.90;61.60;;;;;;4993992;28;20550;-76
2023/05/29 10:05:50;;;;;;;5.87;4.00;;;22.90;61.70;;;;;;4993916;28;21022;-76
2023/05/29 10:08:20;;;;;;;4.03;3.73;;;22.80;61.90;;;;;;4994958;28;20489;-75
2023/05/29 10:10:49;;;;;;;4.07;3.47;;;22.80;62.60;;;;;;4994233;28;20573;-75
2023/05/29 10:13:18;;;;;;;3.20;2.90;;;22.90;62.90;;;;;;4993782;28;20964;-76
2023/05/29 10:15:49;;;;;;;5.10;4.60;;;22.90;62.70;;;;;;4991835;28;20470;-76
2023/05/29 10:18:21;;;;;;;5.83;3.70;;;22.80;62.50;;;;;;4994705;28;20474;-76
2023/05/29 10:20:51;;;;;;;5.17;4.23;;;22.90;61.00;;;;;;4994265;28;20485;-76
2023/05/29 10:23:23;;;;;;;3.63;3.33;;;22.90;60.60;;;;;;4984072;28;20912;-75
2023/05/29 10:25:54;;;;;;;4.60;3.47;;;22.90;60.10;;;;;;4994562;28;21002;-76
2023/05/29 10:28:23;;;;;;;4.60;4.20;;;23.00;60.50;;;;;;4996763;28;20496;-76
2023/05/29 10:30:55;;;;;;;3.20;2.73;;;23.00;60.40;;;;;;5000538;28;20532;-76
2023/05/29 10:33:38;;;;;;;4.30;3.90;;;23.10;60.30;;;;;;5004955;28;20916;-76
2023/05/29 10:36:16;;;;;;;3.73;3.43;;;23.10;59.80;;;;;;4975356;28;20532;-76
2023/05/29 10:38:47;;;;;;;4.60;3.90;;;23.20;60.00;;;;;;4991723;28;20561;-76
2023/05/29 10:41:34;;;;;;;4.10;3.70;;;23.10;59.90;;;;;;5001802;28;20866;-75
2023/05/29 10:44:01;;;;;;;5.90;3.17;;;23.20;59.50;;;;;;5004164;28;20815;-76
2023/05/29 10:47:08;;;;;;;3.50;3.20;;;23.20;59.30;;;;;;4987268;28;20461;-76
2023/05/29 10:49:36;;;;;;;5.83;4.07;;;23.10;59.20;;;;;;4955478;28;20554;-76
2023/05/29 10:52:06;;;;;;;5.90;3.50;;;23.10;59.40;;;;;;4994258;28;20466;-76
2023/05/29 10:54:53;;;;;;;5.07;4.00;;;23.10;59.50;;;;;;4993013;28;20534;-76
2023/05/29 10:57:22;;;;;;;4.10;3.27;;;23.00;59.20;;;;;;4993911;28;20473;-76
2023/05/29 10:59:58;;;;;;;4.00;3.20;;;23.00;59.10;;;;;;4998647;28;20476;-76
2023/05/29 11:02:25;;;;;;;4.10;3.63;;;22.90;59.30;;;;;;5004064;28;20469;-76
2023/05/29 11:05:07;;;;;;;4.93;3.83;;;22.90;59.20;;;;;;5003777;28;20494;-75
2023/05/29 11:07:34;;;;;;;3.60;3.30;;;23.00;59.20;;;;;;4992838;28;20462;-76
2023/05/29 11:10:14;;;;;;;6.30;5.70;;;23.00;58.70;;;;;;4993707;28;20812;-76
2023/05/29 11:13:09;;;;;;;4.33;3.87;;;23.00;59.60;;;;;;4993925;28;20468;-75
2023/05/29 11:15:39;;;;;;;4.80;4.40;;;23.10;59.00;;;;;;5001177;28;20470;-75
2023/05/29 11:18:09;;;;;;;7.30;5.50;;;23.10;58.90;;;;;;5004375;28;20576;-75
2023/05/29 11:20:52;;;;;;;4.63;3.97;;;23.20;59.00;;;;;;4997209;28;20474;-76
2023/05/29 11:23:19;;;;;;;4.40;3.87;;;23.20;59.10;;;;;;4995366;28;20483;-76
2023/05/29 11:25:48;;;;;;;3.53;3.23;;;23.30;59.10;;;;;;4994194;28;20481;-77
2023/05/29 11:28:15;;;;;;;6.10;3.27;;;23.20;58.70;;;;;;4996993;28;20493;-76
2023/05/29 11:30:47;;;;;;;4.63;3.10;;;23.20;57.80;;;;;;4993170;28;20467;-76
2023/05/29 11:33:24;;;;;;;4.60;2.90;;;23.20;58.10;;;;;;4993012;28;20504;-77
2023/05/29 11:35:57;;;;;;;4.50;3.53;;;23.20;59.20;;;;;;4992770;28;20482;-76
2023/05/29 11:38:24;;;;;;;4.37;3.97;;;23.20;59.50;;;;;;4991486;28;20465;-75
2023/05/29 11:40:55;;;;;;;5.00;4.17;;;23.30;59.40;;;;;;4991467;28;20457;-75
2023/05/29 11:43:23;;;;;;;5.20;3.77;;;23.30;59.50;;;;;;4992065;28;20470;-75
2023/05/29 11:46:13;;;;;;;4.13;3.70;;;23.40;59.70;;;;;;4990586;28;20560;-75
2023/05/29 11:48:48;;;;;;;3.80;3.50;;;23.50;59.10;;;;;;4992024;28;20470;-76
2023/05/29 11:51:20;;;;;;;3.97;3.67;;;23.50;58.30;;;;;;4990955;28;20516;-76
2023/05/29 11:53:48;;;;;;;4.00;3.63;;;23.40;58.00;;;;;;4991821;28;20496;-75
2023/05/29 11:56:17;;;;;;;3.93;3.30;;;23.40;56.80;;;;;;4991519;28;20505;-76
2023/05/29 11:58:46;;;;;;;3.40;3.10;;;23.50;57.30;;;;;;4992902;28;20556;-76
2023/05/29 12:01:23;;;;;;;7.10;3.20;;;23.50;57.20;;;;;;4992581;28;20473;-76
2023/05/29 12:03:50;;;;;;;3.97;3.40;;;23.40;56.80;;;;;;4993724;28;20483;-76
2023/05/29 12:06:31;;;;;;;3.53;2.93;;;23.50;57.10;;;;;;4991829;28;20648;-76
2023/05/29 12:09:02;;;;;;;3.30;2.73;;;23.50;57.40;;;;;;4992549;28;20899;-75
2023/05/29 12:11:35;;;;;;;5.50;4.90;;;23.50;57.40;;;;;;4992371;28;20986;-75
2023/05/29 12:14:03;;;;;;;5.33;3.60;;;23.50;57.80;;;;;;4992829;28;20469;-76
2023/05/29 12:16:31;;;;;;;6.40;3.90;;;23.60;58.20;;;;;;4992416;28;20473;-76
2023/05/29 12:18:59;;;;;;;5.10;3.83;;;23.60;58.00;;;;;;4995053;28;20868;-76
2023/05/29 12:21:29;;;;;;;6.10;4.07;;;23.60;58.00;;;;;;4993251;28;20517;-75
2023/05/29 12:23:56;;;;;;;5.67;4.40;;;23.70;57.40;;;;;;4984593;28;20488;-77
2023/05/29 12:26:27;;;;;;;5.07;3.67;;;23.70;57.20;;;;;;4984065;28;20481;-76
2023/05/29 12:28:56;;;;;;;4.77;3.10;;;23.70;56.90;;;;;;5000598;28;20508;-76
2023/05/29 12:31:31;;;;;;;5.30;4.30;;;23.60;56.80;;;;;;5006331;28;20473;-75
2023/05/29 12:34:08;;;;;;;5.40;4.90;;;23.70;56.80;;;;;;5013162;28;20556;-74
2023/05/29 12:36:40;;;;;;;4.80;4.37;;;23.60;56.70;;;;;;5011110;28;20815;-74
2023/05/29 12:39:15;;;;;;;7.13;3.37;;;23.60;56.70;;;;;;5010649;28;20480;-74
2023/05/29 12:41:42;;;;;;;6.17;4.20;;;23.60;56.10;;;;;;5011718;28;20484;-77
2023/05/29 12:44:12;;;;;;;3.37;2.80;;;23.60;55.80;;;;;;5012009;28;20473;-76
2023/05/29 12:46:42;;;;;;;4.93;3.40;;;23.70;55.70;;;;;;5010709;28;20552;-77
2023/05/29 12:49:16;;;;;;;4.20;3.17;;;23.60;56.10;;;;;;5012007;28;20498;-76
2023/05/29 12:51:44;;;;;;;4.60;3.23;;;23.60;56.50;;;;;;5011691;28;20619;-75
2023/05/29 12:54:11;;;;;;;4.03;3.03;;;23.60;56.90;;;;;;5012296;28;20826;-76
2023/05/29 12:56:40;;;;;;;2.83;2.63;;;23.60;56.60;;;;;;5012044;28;20481;-76
2023/05/29 12:59:11;;;;;;;3.57;3.17;;;23.60;56.60;;;;;;5012388;28;20827;-76
2023/05/29 13:01:40;;;;;;;4.30;3.50;;;23.50;56.20;;;;;;5012058;28;20994;-76
2023/05/29 13:04:07;;;;;;;3.80;3.03;;;23.50;56.60;;;;;;5011533;28;20555;-76
2023/05/29 13:06:35;;;;;;;3.50;2.93;;;23.40;56.50;;;;;;5010415;28;20496;-75